Time;durP1;ratioP1;P1;durP2;ratioP2;P2;SDS_P1;SDS_P2;PMS_P1;PMS_P2;Temp;Humidity;BMP_temperature;BMP_pressure;BME280_temperature;BME280_humidity;BME280_pressure;Samples;Min_cycle;Max_cycle;Signal;HPM_P1;HPM_P2
2021/05/10 00:01:29;;;;;;;6.95;3.45;;;;;;;;;;4944357;28;20098;-50
2021/05/10 00:03:55;;;;;;;4.93;2.60;;;;;;;;;;4944768;28;20133;-49
2021/05/10 00:06:22;;;;;;;9.27;4.88;;;;;;;;;;4944431;28;20019;-51
2021/05/10 00:08:48;;;;;;;15.93;9.48;;;;;;;;;;4944447;28;20058;-51
2021/05/10 00:11:15;;;;;;;17.75;10.10;;;;;;;;;;4945351;28;20023;-50
2021/05/10 00:13:45;;;;;;;5.30;1.90;;;;;;;;;;4944798;28;20031;-52
2021/05/10 00:16:12;;;;;;;9.10;3.37;;;;;;;;;;4944521;28;20093;-50
2021/05/10 00:18:38;;;;;;;7.85;3.60;;;;;;;;;;4944241;28;20273;-50
2021/05/10 00:21:04;;;;;;;8.75;2.97;;;;;;;;;;4944177;28;20023;-51
2021/05/10 00:23:30;;;;;;;5.22;2.63;;;;;;;;;;4944496;28;20034;-50
2021/05/10 00:25:56;;;;;;;19.83;10.27;;;;;;;;;;4944422;28;20028;-53
2021/05/10 00:28:23;;;;;;;5.65;2.80;;;;;;;;;;4945320;28;20039;-51
2021/05/10 00:30:49;;;;;;;5.70;2.47;;;;;;;;;;4944153;28;20041;-49
2021/05/10 00:33:15;;;;;;;6.43;2.20;;;;;;;;;;4948956;28;20037;-51
2021/05/10 00:35:41;;;;;;;8.02;4.28;;;;;;;;;;4948156;28;20030;-51
2021/05/10 00:38:07;;;;;;;8.85;5.47;;;;;;;;;;4948091;28;20034;-51
2021/05/10 00:40:34;;;;;;;7.22;3.40;;;;;;;;;;4947816;28;20062;-51
2021/05/10 00:43:01;;;;;;;7.25;3.05;;;;;;;;;;4948264;28;20023;-51
2021/05/10 00:45:27;;;;;;;12.75;5.25;;;;;;;;;;4948084;28;20668;-51
2021/05/10 00:47:53;;;;;;;9.65;4.35;;;;;;;;;;4947705;28;20035;-50
2021/05/10 00:50:21;;;;;;;8.50;3.72;;;;;;;;;;4947675;28;20561;-50
2021/05/10 00:52:47;;;;;;;5.05;3.60;;;;;;;;;;4947680;28;20054;-50
2021/05/10 00:55:14;;;;;;;12.95;5.47;;;;;;;;;;4950278;28;20027;-49
2021/05/10 00:57:42;;;;;;;7.88;2.72;;;;;;;;;;4947965;28;20033;-50
2021/05/10 01:00:09;;;;;;;38.97;21.52;;;;;;;;;;4947661;28;20062;-51
2021/05/10 01:02:36;;;;;;;18.73;11.93;;;;;;;;;;4947618;28;20362;-50
2021/05/10 01:05:03;;;;;;;7.82;5.35;;;;;;;;;;4947472;28;20094;-49
2021/05/10 01:07:29;;;;;;;10.35;6.85;;;;;;;;;;4947535;28;20669;-49
2021/05/10 01:09:55;;;;;;;25.67;17.08;;;;;;;;;;4947377;28;20030;-50
2021/05/10 01:12:21;;;;;;;45.35;26.77;;;;;;;;;;4948259;28;20142;-49
2021/05/10 01:14:48;;;;;;;19.75;10.77;;;;;;;;;;4947413;28;20077;-52
2021/05/10 01:17:14;;;;;;;33.40;16.90;;;;;;;;;;4947176;28;20042;-47
2021/05/10 01:19:40;;;;;;;7.32;4.13;;;;;;;;;;4947777;28;20090;-47
2021/05/10 01:22:08;;;;;;;24.15;11.73;;;;;;;;;;4947105;28;20027;-52
2021/05/10 01:24:34;;;;;;;21.15;13.23;;;;;;;;;;4947308;28;20049;-48
2021/05/10 01:27:00;;;;;;;8.73;3.63;;;;;;;;;;4947145;28;20038;-52
2021/05/10 01:29:26;;;;;;;4.03;1.80;;;;;;;;;;4946912;28;20396;-50
2021/05/10 01:31:52;;;;;;;5.60;1.40;;;;;;;;;;4946898;28;20055;-51
2021/05/10 01:34:19;;;;;;;4.60;1.92;;;;;;;;;;4946980;28;20074;-50
2021/05/10 01:36:45;;;;;;;6.55;2.83;;;;;;;;;;4946998;28;20025;-50
2021/05/10 01:39:13;;;;;;;7.38;1.65;;;;;;;;;;4946861;28;20430;-51
2021/05/10 01:41:42;;;;;;;7.57;1.83;;;;;;;;;;4946544;28;20362;-51
2021/05/10 01:44:10;;;;;;;6.80;1.58;;;;;;;;;;4946757;28;20539;-49
2021/05/10 01:46:36;;;;;;;4.95;1.98;;;;;;;;;;4947588;28;20038;-49
2021/05/10 01:49:03;;;;;;;11.95;4.75;;;;;;;;;;4946479;28;20822;-50
2021/05/10 01:51:29;;;;;;;4.10;2.72;;;;;;;;;;4947861;28;20050;-51
2021/05/10 01:53:55;;;;;;;4.47;2.05;;;;;;;;;;4946762;28;20125;-50
2021/05/10 01:56:21;;;;;;;2.03;1.75;;;;;;;;;;4946942;28;20045;-50
2021/05/10 01:58:51;;;;;;;6.40;1.88;;;;;;;;;;4946814;28;20033;-49
2021/05/10 02:01:19;;;;;;;4.22;1.73;;;;;;;;;;4957213;28;20019;-50
2021/05/10 02:03:46;;;;;;;5.22;1.90;;;;;;;;;;4957548;29;20054;-50
2021/05/10 02:06:12;;;;;;;3.72;1.83;;;;;;;;;;4957558;29;20023;-50
2021/05/10 02:08:38;;;;;;;2.90;1.70;;;;;;;;;;4956997;29;20073;-50
2021/05/10 02:11:04;;;;;;;3.10;1.90;;;;;;;;;;4957184;28;20016;-51
2021/05/10 02:13:30;;;;;;;6.00;2.17;;;;;;;;;;4957094;28;20023;-49
2021/05/10 02:16:00;;;;;;;4.35;1.83;;;;;;;;;;4957044;28;20034;-48
2021/05/10 02:18:30;;;;;;;6.30;1.83;;;;;;;;;;4957260;29;20563;-49
2021/05/10 02:20:56;;;;;;;5.68;2.33;;;;;;;;;;4957284;29;20381;-49
2021/05/10 02:23:24;;;;;;;4.72;1.48;;;;;;;;;;4957016;29;20024;-49
2021/05/10 02:25:54;;;;;;;3.80;1.88;;;;;;;;;;4956917;29;20049;-49
2021/05/10 02:28:23;;;;;;;6.55;2.10;;;;;;;;;;4956642;29;20035;-50
2021/05/10 02:30:49;;;;;;;3.88;1.42;;;;;;;;;;4955782;29;20035;-50
2021/05/10 02:33:16;;;;;;;5.38;2.00;;;;;;;;;;4956841;29;20495;-50
2021/05/10 02:35:43;;;;;;;6.80;1.70;;;;;;;;;;4956924;28;20114;-50
2021/05/10 02:38:09;;;;;;;3.95;1.80;;;;;;;;;;4956751;29;20023;-50
2021/05/10 02:40:35;;;;;;;3.50;1.92;;;;;;;;;;4956677;29;20141;-50
2021/05/10 02:43:04;;;;;;;10.70;1.65;;;;;;;;;;4956456;28;20426;-50
2021/05/10 02:45:30;;;;;;;3.10;2.13;;;;;;;;;;4956609;29;20048;-49
2021/05/10 02:47:57;;;;;;;8.25;1.67;;;;;;;;;;4956330;29;20035;-50
2021/05/10 02:50:24;;;;;;;3.55;2.00;;;;;;;;;;4956695;29;20148;-50
2021/05/10 02:52:51;;;;;;;5.05;2.10;;;;;;;;;;4956389;29;20506;-50
2021/05/10 02:55:18;;;;;;;8.88;2.17;;;;;;;;;;4955863;28;20026;-50
2021/05/10 02:57:44;;;;;;;6.80;2.50;;;;;;;;;;4956494;28;20160;-50
2021/05/10 03:00:12;;;;;;;3.88;2.22;;;;;;;;;;4956281;29;20027;-50
2021/05/10 03:02:39;;;;;;;7.38;2.13;;;;;;;;;;4955038;28;20023;-50
2021/05/10 03:05:06;;;;;;;8.27;2.22;;;;;;;;;;4956065;29;20031;-51
2021/05/10 03:07:33;;;;;;;5.20;2.25;;;;;;;;;;4956061;29;20101;-50
2021/05/10 03:09:59;;;;;;;3.75;1.85;;;;;;;;;;4956100;29;20019;-50
2021/05/10 03:12:25;;;;;;;8.07;2.25;;;;;;;;;;4955883;29;20038;-50
2021/05/10 03:14:51;;;;;;;7.93;2.50;;;;;;;;;;4956480;28;20019;-50
2021/05/10 03:17:17;;;;;;;5.45;2.20;;;;;;;;;;4955955;29;20047;-50
2021/05/10 03:19:43;;;;;;;4.90;2.53;;;;;;;;;;4956101;29;20517;-50
2021/05/10 03:22:09;;;;;;;5.95;2.60;;;;;;;;;;4956026;29;20066;-49
2021/05/10 03:24:35;;;;;;;6.75;3.03;;;;;;;;;;4955938;29;20028;-50
2021/05/10 03:27:03;;;;;;;11.23;3.35;;;;;;;;;;4955661;29;20488;-49
2021/05/10 03:29:30;;;;;;;6.45;2.58;;;;;;;;;;4955617;29;20030;-49
2021/05/10 03:31:56;;;;;;;8.95;3.20;;;;;;;;;;4955886;29;20029;-50
2021/05/10 03:34:22;;;;;;;3.92;2.22;;;;;;;;;;4955864;29;20024;-50
2021/05/10 03:36:48;;;;;;;6.82;2.58;;;;;;;;;;4938874;29;20035;-50
2021/05/10 03:39:14;;;;;;;9.65;2.45;;;;;;;;;;4955615;29;20106;-50
2021/05/10 03:41:40;;;;;;;10.27;2.42;;;;;;;;;;4955602;29;20037;-50
2021/05/10 03:44:06;;;;;;;8.05;2.47;;;;;;;;;;4955575;28;20451;-49
2021/05/10 03:46:32;;;;;;;4.80;2.40;;;;;;;;;;4955440;29;20035;-49
2021/05/10 03:48:58;;;;;;;10.30;2.50;;;;;;;;;;4955358;28;20518;-48
2021/05/10 03:51:24;;;;;;;9.10;3.15;;;;;;;;;;4955660;29;20126;-50
2021/05/10 03:53:53;;;;;;;6.47;2.58;;;;;;;;;;4955403;29;20034;-51
2021/05/10 03:56:19;;;;;;;7.72;2.63;;;;;;;;;;4955467;28;20045;-50
2021/05/10 03:58:45;;;;;;;6.43;2.05;;;;;;;;;;4955250;29;20031;-50
2021/05/10 04:01:12;;;;;;;4.28;2.25;;;;;;;;;;4955362;29;20468;-51
2021/05/10 04:04:06;;;;;;;9.60;2.78;;;;;;;;;;4955477;28;20027;-50
2021/05/10 04:09:29;;;;;;;7.88;3.85;;;;;;;;;;4955247;29;20125;-50
2021/05/10 04:14:40;;;;;;;5.80;2.67;;;;;;;;;;4955303;29;20175;-50
2021/05/10 04:17:07;;;;;;;7.95;2.20;;;;;;;;;;4955226;29;20027;-51
2021/05/10 04:19:33;;;;;;;5.13;1.73;;;;;;;;;;4955512;29;20039;-50
2021/05/10 04:21:59;;;;;;;5.75;2.13;;;;;;;;;;4955178;29;20043;-49
2021/05/10 04:24:25;;;;;;;11.10;2.50;;;;;;;;;;4955274;28;20079;-49
2021/05/10 04:26:51;;;;;;;5.38;2.13;;;;;;;;;;4955174;28;20027;-49
2021/05/10 04:29:18;;;;;;;5.50;2.38;;;;;;;;;;4955121;29;20078;-49
2021/05/10 04:31:44;;;;;;;8.40;2.83;;;;;;;;;;4955153;29;20035;-49
2021/05/10 04:34:10;;;;;;;9.70;3.72;;;;;;;;;;4955208;29;20064;-49
2021/05/10 04:36:36;;;;;;;5.13;2.28;;;;;;;;;;4954885;29;20061;-49
2021/05/10 04:39:02;;;;;;;4.32;2.22;;;;;;;;;;4955071;29;20495;-50
2021/05/10 04:41:28;;;;;;;4.18;2.13;;;;;;;;;;4955465;29;20389;-50
2021/05/10 04:43:54;;;;;;;6.65;3.22;;;;;;;;;;4955249;29;20107;-49
2021/05/10 04:46:20;;;;;;;7.80;3.78;;;;;;;;;;4954795;29;20035;-49
2021/05/10 04:48:46;;;;;;;16.42;4.45;;;;;;;;;;4954742;29;20047;-50
2021/05/10 04:51:13;;;;;;;7.88;3.50;;;;;;;;;;4954823;29;20023;-50
2021/05/10 04:53:39;;;;;;;4.88;2.58;;;;;;;;;;4954823;29;20030;-50
2021/05/10 04:56:07;;;;;;;4.60;2.90;;;;;;;;;;4954948;29;20053;-50
2021/05/10 04:58:33;;;;;;;10.85;3.88;;;;;;;;;;4954756;29;20030;-49
2021/05/10 05:01:00;;;;;;;6.85;3.17;;;;;;;;;;4954863;29;20032;-50
2021/05/10 05:03:26;;;;;;;6.68;3.05;;;;;;;;;;4953504;28;20039;-50
2021/05/10 05:05:56;;;;;;;9.75;1.90;;;;;;;;;;4954740;28;20031;-50
2021/05/10 05:08:22;;;;;;;4.63;1.75;;;;;;;;;;4954580;29;20050;-50
2021/05/10 05:10:48;;;;;;;4.13;1.98;;;;;;;;;;4955112;29;20428;-50
2021/05/10 05:13:21;;;;;;;8.10;2.15;;;;;;;;;;4954840;29;20027;-50
2021/05/10 05:15:47;;;;;;;6.57;2.45;;;;;;;;;;4954661;29;20026;-50
2021/05/10 05:18:13;;;;;;;7.43;2.05;;;;;;;;;;4956312;28;20027;-49
2021/05/10 05:20:39;;;;;;;9.02;1.70;;;;;;;;;;4957879;28;20027;-51
2021/05/10 05:23:16;;;;;;;7.60;2.05;;;;;;;;;;4957925;29;20031;-51
2021/05/10 05:25:42;;;;;;;7.35;2.28;;;;;;;;;;4958008;29;20031;-50
2021/05/10 05:28:08;;;;;;;3.53;1.75;;;;;;;;;;4958045;29;20102;-50
2021/05/10 05:30:34;;;;;;;5.13;1.75;;;;;;;;;;4957948;28;20039;-50
2021/05/10 05:33:00;;;;;;;5.72;1.52;;;;;;;;;;4958237;29;20027;-50
2021/05/10 05:35:26;;;;;;;5.88;1.70;;;;;;;;;;4957553;28;20030;-49
2021/05/10 05:37:52;;;;;;;3.72;1.90;;;;;;;;;;4957798;29;20023;-50
2021/05/10 05:40:19;;;;;;;6.22;2.03;;;;;;;;;;4957664;29;20027;-50
2021/05/10 05:42:45;;;;;;;4.72;1.70;;;;;;;;;;4957657;29;20023;-49
2021/05/10 05:45:13;;;;;;;3.95;1.88;;;;;;;;;;4957485;29;20095;-50
2021/05/10 05:47:39;;;;;;;5.70;1.80;;;;;;;;;;4957153;29;20046;-50
2021/05/10 05:50:05;;;;;;;7.38;3.83;;;;;;;;;;4957319;29;20116;-51
2021/05/10 05:52:31;;;;;;;7.82;3.80;;;;;;;;;;4957421;29;20074;-50
2021/05/10 05:54:58;;;;;;;2.85;2.03;;;;;;;;;;4957442;29;20476;-50
2021/05/10 05:57:24;;;;;;;3.40;1.80;;;;;;;;;;4957242;28;20023;-50
2021/05/10 05:59:52;;;;;;;5.40;2.00;;;;;;;;;;4957210;28;20027;-51
2021/05/10 06:02:18;;;;;;;8.05;2.53;;;;;;;;;;4957158;29;20024;-49
2021/05/10 06:04:44;;;;;;;6.32;1.42;;;;;;;;;;4957061;29;20106;-51
2021/05/10 06:07:10;;;;;;;3.38;2.13;;;;;;;;;;4956890;29;20135;-51
2021/05/10 06:09:36;;;;;;;7.63;2.00;;;;;;;;;;4956855;29;20083;-51
2021/05/10 06:12:02;;;;;;;5.13;2.08;;;;;;;;;;4957201;29;20447;-50
2021/05/10 06:14:29;;;;;;;10.55;2.60;;;;;;;;;;4956876;29;20031;-50
2021/05/10 06:16:55;;;;;;;4.88;1.67;;;;;;;;;;4955411;29;20047;-50
2021/05/10 06:19:21;;;;;;;10.13;2.00;;;;;;;;;;4956663;29;20031;-50
2021/05/10 06:21:47;;;;;;;7.60;2.90;;;;;;;;;;4955565;29;20094;-50
2021/05/10 06:24:14;;;;;;;9.80;3.95;;;;;;;;;;4956876;29;20039;-50
2021/05/10 06:26:40;;;;;;;5.93;2.55;;;;;;;;;;4956880;29;20431;-50
2021/05/10 06:29:06;;;;;;;4.25;1.83;;;;;;;;;;4955465;28;20074;-51
2021/05/10 06:31:32;;;;;;;11.10;2.20;;;;;;;;;;4956724;29;20019;-50
2021/05/10 06:33:59;;;;;;;5.32;2.58;;;;;;;;;;4956674;29;20027;-50
2021/05/10 06:36:25;;;;;;;8.55;3.97;;;;;;;;;;4956996;28;20122;-50
2021/05/10 06:38:51;;;;;;;13.52;6.63;;;;;;;;;;4956830;29;20381;-50
2021/05/10 06:41:17;;;;;;;11.90;5.80;;;;;;;;;;4956583;28;20056;-51
2021/05/10 06:43:43;;;;;;;7.68;1.80;;;;;;;;;;4956668;29;20031;-51
2021/05/10 06:46:09;;;;;;;8.20;2.25;;;;;;;;;;4956389;29;20046;-51
2021/05/10 06:48:35;;;;;;;4.55;1.95;;;;;;;;;;4956250;29;20050;-51
2021/05/10 06:51:02;;;;;;;3.33;1.80;;;;;;;;;;4956247;29;20460;-52
2021/05/10 06:53:28;;;;;;;7.53;2.53;;;;;;;;;;4956358;29;20034;-51
2021/05/10 06:55:55;;;;;;;9.95;2.90;;;;;;;;;;4956164;29;20030;-51
2021/05/10 06:58:21;;;;;;;6.38;2.40;;;;;;;;;;4959905;28;20488;-51
2021/05/10 07:00:50;;;;;;;7.47;3.33;;;;;;;;;;4963887;28;20023;-52
2021/05/10 07:03:16;;;;;;;6.57;2.15;;;;;;;;;;4964219;28;20027;-52
2021/05/10 07:05:44;;;;;;;5.68;3.00;;;;;;;;;;4964874;28;20019;-51
2021/05/10 07:08:11;;;;;;;4.97;2.70;;;;;;;;;;4963049;28;20051;-51
2021/05/10 07:10:37;;;;;;;11.73;4.90;;;;;;;;;;4963238;28;20050;-49
2021/05/10 07:13:03;;;;;;;11.40;2.90;;;;;;;;;;4963476;28;20541;-53
2021/05/10 07:15:29;;;;;;;14.27;7.45;;;;;;;;;;4965156;28;20023;-50
2021/05/10 07:18:06;;;;;;;9.38;4.25;;;;;;;;;;4963671;28;20019;-50
2021/05/10 07:20:32;;;;;;;16.30;9.23;;;;;;;;;;4963230;28;20384;-51
2021/05/10 07:22:58;;;;;;;35.85;21.13;;;;;;;;;;4964307;28;20018;-51
2021/05/10 07:25:24;;;;;;;15.75;7.68;;;;;;;;;;4959798;28;20035;-49
2021/05/10 07:27:51;;;;;;;68.80;43.95;;;;;;;;;;4955569;29;20503;-50
2021/05/10 07:30:17;;;;;;;82.47;49.08;;;;;;;;;;4955750;29;20032;-48
2021/05/10 07:32:43;;;;;;;9.88;3.65;;;;;;;;;;4955619;29;20371;-50
2021/05/10 07:35:09;;;;;;;57.00;31.88;;;;;;;;;;4955268;28;20042;-49
2021/05/10 07:37:36;;;;;;;8.25;3.90;;;;;;;;;;4955446;29;20023;-49
2021/05/10 07:40:03;;;;;;;9.95;4.53;;;;;;;;;;4955093;28;20079;-50
2021/05/10 07:42:29;;;;;;;21.83;13.13;;;;;;;;;;4955350;28;20055;-52
2021/05/10 07:44:55;;;;;;;10.90;2.92;;;;;;;;;;4955287;29;20404;-50
2021/05/10 07:47:21;;;;;;;8.88;5.35;;;;;;;;;;4955169;28;20027;-50
2021/05/10 07:49:47;;;;;;;10.45;2.75;;;;;;;;;;4955115;29;20554;-51
2021/05/10 07:52:13;;;;;;;24.08;14.02;;;;;;;;;;4955633;29;20110;-52
2021/05/10 07:54:39;;;;;;;6.53;2.70;;;;;;;;;;4962771;28;20031;-55
2021/05/10 07:57:07;;;;;;;24.25;11.48;;;;;;;;;;4955381;29;20621;-50
2021/05/10 07:59:34;;;;;;;7.90;1.95;;;;;;;;;;4955349;28;20039;-50
2021/05/10 08:02:01;;;;;;;5.18;2.03;;;;;;;;;;4955141;29;20050;-52
2021/05/10 08:04:29;;;;;;;18.95;10.27;;;;;;;;;;4955173;29;20023;-54
2021/05/10 08:06:55;;;;;;;14.00;7.63;;;;;;;;;;4954986;29;20047;-54
2021/05/10 08:09:23;;;;;;;9.82;5.25;;;;;;;;;;4955165;28;20035;-53
2021/05/10 08:11:49;;;;;;;12.68;4.45;;;;;;;;;;4955140;29;20053;-54
2021/05/10 08:14:17;;;;;;;294.13;180.68;;;;;;;;;;4954964;28;20468;-53
2021/05/10 08:16:44;;;;;;;21.25;9.18;;;;;;;;;;4955030;29;20036;-54
2021/05/10 08:19:12;;;;;;;37.00;20.17;;;;;;;;;;4954900;29;20031;-55
2021/05/10 08:21:39;;;;;;;7.68;4.07;;;;;;;;;;4955186;29;20078;-55
2021/05/10 08:24:06;;;;;;;9.98;3.58;;;;;;;;;;4955000;29;20032;-53
2021/05/10 08:26:32;;;;;;;9.55;3.70;;;;;;;;;;4955992;28;20019;-49
2021/05/10 08:28:58;;;;;;;6.20;3.55;;;;;;;;;;4963526;28;20039;-52
2021/05/10 08:31:24;;;;;;;5.75;2.80;;;;;;;;;;4964135;28;20038;-52
2021/05/10 08:33:50;;;;;;;13.80;4.47;;;;;;;;;;4965009;28;20027;-52
2021/05/10 08:36:18;;;;;;;5.97;2.92;;;;;;;;;;4964292;28;20023;-49
2021/05/10 08:38:48;;;;;;;31.67;18.15;;;;;;;;;;4964036;28;20034;-52
2021/05/10 08:41:14;;;;;;;5.05;3.08;;;;;;;;;;4946776;28;20185;-53
2021/05/10 08:43:40;;;;;;;15.88;6.50;;;;;;;;;;4965442;28;20027;-51
2021/05/10 08:46:06;;;;;;;15.20;7.10;;;;;;;;;;4974027;28;20061;-53
2021/05/10 08:48:32;;;;;;;13.52;5.13;;;;;;;;;;4973984;28;20480;-53
2021/05/10 08:50:58;;;;;;;20.77;13.75;;;;;;;;;;4973977;28;20027;-53
2021/05/10 08:53:38;;;;;;;14.70;7.30;;;;;;;;;;4976606;28;20368;-55
2021/05/10 08:56:05;;;;;;;11.50;6.28;;;;;;;;;;4977879;28;20391;-54
2021/05/10 08:58:43;;;;;;;15.48;8.40;;;;;;;;;;4977734;28;20118;-53
2021/05/10 09:01:09;;;;;;;16.65;9.27;;;;;;;;;;4977506;28;20027;-51
2021/05/10 09:03:41;;;;;;;15.75;8.10;;;;;;;;;;4977671;28;20030;-52
2021/05/10 09:06:13;;;;;;;31.05;18.33;;;;;;;;;;4977699;28;20030;-52
2021/05/10 09:08:41;;;;;;;13.90;7.97;;;;;;;;;;4977271;28;20090;-52
2021/05/10 09:11:07;;;;;;;21.42;13.48;;;;;;;;;;4977451;28;20391;-52
2021/05/10 09:13:36;;;;;;;9.45;6.18;;;;;;;;;;4977577;28;20029;-53
2021/05/10 09:16:03;;;;;;;19.60;11.70;;;;;;;;;;4977205;28;20022;-54
2021/05/10 09:18:29;;;;;;;33.00;17.77;;;;;;;;;;4977332;28;20480;-54
2021/05/10 09:21:10;;;;;;;10.18;4.30;;;;;;;;;;4959902;28;20475;-55
2021/05/10 09:23:37;;;;;;;20.58;8.15;;;;;;;;;;4977409;28;20039;-55
2021/05/10 09:26:03;;;;;;;24.70;16.38;;;;;;;;;;4977327;28;20539;-54
2021/05/10 09:28:36;;;;;;;8.55;4.05;;;;;;;;;;4976898;28;20045;-55
2021/05/10 09:31:09;;;;;;;14.73;7.72;;;;;;;;;;4977205;28;20023;-54
2021/05/10 09:33:36;;;;;;;70.80;46.03;;;;;;;;;;4976846;28;20031;-54
2021/05/10 09:36:07;;;;;;;18.58;9.40;;;;;;;;;;4976967;28;20030;-54
2021/05/10 09:38:39;;;;;;;14.45;7.13;;;;;;;;;;4977088;28;20022;-53
2021/05/10 09:41:07;;;;;;;18.55;10.23;;;;;;;;;;4976795;28;20039;-53
2021/05/10 09:43:35;;;;;;;15.27;6.75;;;;;;;;;;4976897;28;20058;-52
2021/05/10 09:46:05;;;;;;;11.10;3.72;;;;;;;;;;4977017;28;20023;-51
2021/05/10 09:48:37;;;;;;;11.13;5.45;;;;;;;;;;4976988;28;20114;-51
2021/05/10 09:51:04;;;;;;;9.60;4.57;;;;;;;;;;4977195;28;20089;-51
2021/05/10 09:53:48;;;;;;;13.73;7.82;;;;;;;;;;4976766;28;20078;-53
2021/05/10 09:56:24;;;;;;;15.65;7.75;;;;;;;;;;4976695;28;20061;-51
2021/05/10 09:58:50;;;;;;;36.33;18.42;;;;;;;;;;4976920;28;20030;-52
2021/05/10 10:01:16;;;;;;;10.43;5.32;;;;;;;;;;4976590;28;20030;-51
2021/05/10 10:03:42;;;;;;;14.00;5.35;;;;;;;;;;4976281;28;20085;-52
2021/05/10 10:06:10;;;;;;;20.63;9.77;;;;;;;;;;4976386;28;20058;-52
2021/05/10 10:08:37;;;;;;;11.27;6.63;;;;;;;;;;4976482;28;20055;-51
2021/05/10 10:11:03;;;;;;;11.13;5.72;;;;;;;;;;4976351;28;20503;-52
2021/05/10 10:13:30;;;;;;;23.92;9.02;;;;;;;;;;4976475;28;20060;-52
2021/05/10 10:15:57;;;;;;;12.45;4.38;;;;;;;;;;4976297;28;20061;-51
2021/05/10 10:18:24;;;;;;;9.50;5.32;;;;;;;;;;4976399;28;20426;-52
2021/05/10 10:20:50;;;;;;;18.23;7.22;;;;;;;;;;4976252;28;20026;-52
2021/05/10 10:23:18;;;;;;;7.45;2.88;;;;;;;;;;4976499;28;20170;-50
2021/05/10 10:25:45;;;;;;;6.50;2.35;;;;;;;;;;4976252;28;20047;-50
2021/05/10 10:28:18;;;;;;;6.88;2.35;;;;;;;;;;4976122;28;20109;-50
2021/05/10 10:31:04;;;;;;;4.13;2.20;;;;;;;;;;4976301;28;20031;-49
2021/05/10 10:33:35;;;;;;;6.88;3.15;;;;;;;;;;4935462;29;20107;-50
2021/05/10 10:36:01;;;;;;;6.95;3.75;;;;;;;;;;4935703;29;20040;-52
2021/05/10 10:38:29;;;;;;;5.88;3.13;;;;;;;;;;4935642;29;20055;-51
2021/05/10 10:41:13;;;;;;;7.28;3.42;;;;;;;;;;4935451;29;20032;-52
2021/05/10 10:43:39;;;;;;;5.25;2.60;;;;;;;;;;4935591;29;20103;-50
2021/05/10 10:46:26;;;;;;;5.25;3.72;;;;;;;;;;4935192;29;20031;-51
2021/05/10 10:48:53;;;;;;;6.50;2.33;;;;;;;;;;4935074;29;20050;-51
2021/05/10 10:51:19;;;;;;;11.93;3.35;;;;;;;;;;4935155;29;20036;-50
2021/05/10 10:53:48;;;;;;;4.88;2.70;;;;;;;;;;4935172;29;20043;-50
2021/05/10 10:56:15;;;;;;;7.90;2.28;;;;;;;;;;4935327;29;20126;-50
2021/05/10 10:58:43;;;;;;;10.52;2.70;;;;;;;;;;4934965;29;20147;-50
2021/05/10 11:01:14;;;;;;;5.65;1.70;;;;;;;;;;4935089;29;20028;-50
2021/05/10 11:03:40;;;;;;;9.75;2.58;;;;;;;;;;4935158;29;20115;-50
2021/05/10 11:06:07;;;;;;;4.20;2.25;;;;;;;;;;4934886;29;20123;-51
2021/05/10 11:08:45;;;;;;;3.78;2.42;;;;;;;;;;4934962;29;20408;-50
2021/05/10 11:11:13;;;;;;;4.53;2.58;;;;;;;;;;4965691;28;20031;-50
2021/05/10 11:13:42;;;;;;;7.50;2.50;;;;;;;;;;4975174;28;20038;-50
2021/05/10 11:16:09;;;;;;;4.00;2.00;;;;;;;;;;4974455;28;20039;-50
2021/05/10 11:19:03;;;;;;;5.38;2.35;;;;;;;;;;4975489;28;20396;-51
2021/05/10 11:21:29;;;;;;;6.25;2.00;;;;;;;;;;4975263;28;20094;-51
2021/05/10 11:24:11;;;;;;;7.05;2.03;;;;;;;;;;4975152;28;20022;-51
2021/05/10 11:26:38;;;;;;;4.22;2.22;;;;;;;;;;4975295;28;20031;-50
2021/05/10 11:29:08;;;;;;;6.72;2.17;;;;;;;;;;4975070;28;20460;-50
2021/05/10 11:31:36;;;;;;;3.47;1.90;;;;;;;;;;4975083;28;20031;-51
2021/05/10 11:34:04;;;;;;;4.05;2.20;;;;;;;;;;4975242;28;20038;-50
2021/05/10 11:36:32;;;;;;;5.30;2.20;;;;;;;;;;4974777;28;20015;-49
2021/05/10 11:38:59;;;;;;;6.00;2.85;;;;;;;;;;4975032;28;20023;-52
2021/05/10 11:41:32;;;;;;;6.35;2.35;;;;;;;;;;4975047;28;20379;-51
2021/05/10 11:43:58;;;;;;;9.05;2.55;;;;;;;;;;4974919;28;20046;-50
2021/05/10 11:46:41;;;;;;;10.52;6.03;;;;;;;;;;4974769;28;20035;-52
2021/05/10 11:49:08;;;;;;;11.82;5.20;;;;;;;;;;4974653;28;20387;-52
2021/05/10 11:51:35;;;;;;;10.35;6.75;;;;;;;;;;4974836;28;20379;-53
2021/05/10 11:54:06;;;;;;;8.30;3.45;;;;;;;;;;4974948;28;20026;-54
2021/05/10 11:56:38;;;;;;;29.33;19.60;;;;;;;;;;4974845;28;20023;-54
2021/05/10 11:59:12;;;;;;;11.00;6.88;;;;;;;;;;4974646;28;20043;-50
2021/05/10 12:01:40;;;;;;;21.02;10.75;;;;;;;;;;4957589;28;20023;-55
2021/05/10 12:04:16;;;;;;;20.75;9.18;;;;;;;;;;4975234;28;20042;-55
2021/05/10 12:06:43;;;;;;;3.47;2.42;;;;;;;;;;4974494;28;20038;-56
2021/05/10 12:09:09;;;;;;;5.25;2.42;;;;;;;;;;4974349;28;20402;-51
2021/05/10 12:11:38;;;;;;;51.88;37.50;;;;;;;;;;4974606;28;20050;-52
2021/05/10 12:14:17;;;;;;;17.48;11.07;;;;;;;;;;4974479;28;20023;-51
2021/05/10 12:17:02;;;;;;;112.80;88.40;;;;;;;;;;4974634;28;20130;-52
2021/05/10 12:19:46;;;;;;;10.00;3.15;;;;;;;;;;4953428;28;20471;-52
2021/05/10 12:22:12;;;;;;;8.00;5.38;;;;;;;;;;4944013;28;20133;-52
2021/05/10 12:24:57;;;;;;;8.73;2.92;;;;;;;;;;4944018;28;20027;-51
2021/05/10 12:27:24;;;;;;;8.93;4.82;;;;;;;;;;4939992;28;20035;-52
2021/05/10 12:29:51;;;;;;;8.68;2.55;;;;;;;;;;4947866;28;20035;-51
2021/05/10 12:32:17;;;;;;;8.10;2.10;;;;;;;;;;4948128;28;20031;-51
2021/05/10 12:34:43;;;;;;;7.53;2.20;;;;;;;;;;4947895;28;20058;-52
2021/05/10 12:37:09;;;;;;;5.32;2.80;;;;;;;;;;4947670;28;20462;-51
2021/05/10 12:39:37;;;;;;;2.53;1.90;;;;;;;;;;4948561;28;20102;-51
2021/05/10 12:42:15;;;;;;;2.05;1.38;;;;;;;;;;4947836;28;20018;-51
2021/05/10 12:44:41;;;;;;;4.05;2.05;;;;;;;;;;4947787;28;20167;-52
2021/05/10 12:47:07;;;;;;;4.28;2.17;;;;;;;;;;4947547;28;20157;-51
2021/05/10 12:49:33;;;;;;;6.50;3.33;;;;;;;;;;4947846;28;20035;-52
2021/05/10 12:52:00;;;;;;;12.65;8.77;;;;;;;;;;4947447;28;20425;-51
2021/05/10 12:54:26;;;;;;;7.72;3.42;;;;;;;;;;4947776;28;20528;-51
2021/05/10 12:56:52;;;;;;;2.83;1.90;;;;;;;;;;4947271;28;20484;-51
2021/05/10 12:59:18;;;;;;;6.38;1.83;;;;;;;;;;4947440;28;20031;-50
2021/05/10 13:01:47;;;;;;;11.40;9.32;;;;;;;;;;4947283;28;20030;-51
2021/05/10 13:04:20;;;;;;;10.27;6.50;;;;;;;;;;4948341;28;20045;-51
2021/05/10 13:06:53;;;;;;;8.43;5.00;;;;;;;;;;4946850;28;20039;-52
2021/05/10 13:09:27;;;;;;;6.53;3.53;;;;;;;;;;4947433;28;20035;-51
2021/05/10 13:11:59;;;;;;;9.45;2.97;;;;;;;;;;4947429;28;20046;-50
2021/05/10 13:17:33;;;;;;;3.47;1.90;;;;;;;;;;4946816;28;20500;-51
2021/05/10 13:33:37;;;;;;;6.35;1.65;;;;;;;;;;4947031;28;20031;-52
2021/05/10 13:36:05;;;;;;;4.53;1.60;;;;;;;;;;4947005;28;20027;-51
2021/05/10 13:38:35;;;;;;;5.57;3.83;;;;;;;;;;4947262;28;20212;-50
2021/05/10 13:41:04;;;;;;;6.88;4.18;;;;;;;;;;4948167;28;20027;-51
2021/05/10 13:43:35;;;;;;;3.47;1.90;;;;;;;;;;4946807;28;20298;-54
2021/05/10 13:46:07;;;;;;;3.90;2.30;;;;;;;;;;4947111;28;20377;-52
2021/05/10 13:48:33;;;;;;;10.60;5.20;;;;;;;;;;4946692;28;20039;-53
2021/05/10 13:50:59;;;;;;;18.63;10.10;;;;;;;;;;4946571;28;20038;-51
2021/05/10 13:53:25;;;;;;;12.60;7.90;;;;;;;;;;4947228;28;20030;-51
2021/05/10 13:55:51;;;;;;;20.00;13.23;;;;;;;;;;4946314;28;20428;-51
2021/05/10 13:58:17;;;;;;;23.25;12.98;;;;;;;;;;4948113;28;20031;-53
2021/05/10 14:00:44;;;;;;;9.13;4.43;;;;;;;;;;4949465;28;20038;-51
2021/05/10 14:03:10;;;;;;;35.70;21.60;;;;;;;;;;4947050;28;20027;-53
2021/05/10 14:05:36;;;;;;;8.52;6.05;;;;;;;;;;4946656;28;20024;-51
2021/05/10 14:08:06;;;;;;;44.72;29.45;;;;;;;;;;4946386;28;20092;-50
2021/05/10 14:10:39;;;;;;;7.40;5.70;;;;;;;;;;4946736;28;20466;-52
2021/05/10 14:13:05;;;;;;;11.02;7.35;;;;;;;;;;4946336;28;20507;-51
2021/05/10 14:15:32;;;;;;;20.77;12.50;;;;;;;;;;4946554;28;20019;-51
2021/05/10 14:17:59;;;;;;;23.92;16.48;;;;;;;;;;4947377;28;20050;-49
2021/05/10 14:21:56;;;;;;;39.10;24.25;;;;;;;;;;4947571;28;20030;-49
2021/05/10 14:23:15;;;;;;;20.80;13.57;;;;;;;;;;4946149;28;20035;-52
2021/05/10 14:25:44;;;;;;;101.70;76.28;;;;;;;;;;4946070;28;20059;-51
2021/05/10 14:28:11;;;;;;;33.25;19.75;;;;;;;;;;4946461;28;20799;-51
2021/05/10 14:30:39;;;;;;;15.00;9.95;;;;;;;;;;4948361;28;20041;-50
2021/05/10 14:33:05;;;;;;;22.13;12.52;;;;;;;;;;4947216;28;20026;-50
2021/05/10 14:35:31;;;;;;;2.15;1.48;;;;;;;;;;4945987;28;20027;-50
2021/05/10 14:38:00;;;;;;;31.73;23.67;;;;;;;;;;4945923;28;20023;-53
2021/05/10 14:40:26;;;;;;;10.65;7.55;;;;;;;;;;4947309;28;20023;-53
2021/05/10 14:42:52;;;;;;;3.60;2.22;;;;;;;;;;4946316;28;20031;-52
2021/05/10 14:45:18;;;;;;;4.95;2.80;;;;;;;;;;4946753;28;20023;-52
2021/05/10 14:47:44;;;;;;;8.65;1.60;;;;;;;;;;4946641;28;20039;-52
2021/05/10 14:50:13;;;;;;;7.80;1.27;;;;;;;;;;4980473;28;20045;-52
2021/05/10 14:52:39;;;;;;;6.18;1.55;;;;;;;;;;4995363;28;20025;-52
2021/05/10 14:55:05;;;;;;;2.95;1.10;;;;;;;;;;4995050;28;20096;-52
2021/05/10 14:57:31;;;;;;;12.15;3.15;;;;;;;;;;4994972;28;20057;-54
2021/05/10 14:59:57;;;;;;;15.88;9.15;;;;;;;;;;4984009;28;20027;-54
2021/05/10 15:02:24;;;;;;;34.55;23.33;;;;;;;;;;4975269;28;20495;-55